createdAt,value
2022-12-09T00:02:43.714Z,16.60
2022-12-09T00:07:44.931Z,15.80
2022-12-09T00:22:48.095Z,16.50
2022-12-09T00:27:49.056Z,18.30
2022-12-09T00:32:50.171Z,18.60
2022-12-09T00:37:51.488Z,18.90
2022-12-09T00:42:52.630Z,19.30
2022-12-09T00:47:54.221Z,20.00
2022-12-09T00:52:55.181Z,15.10
2022-12-09T00:57:56.353Z,16.30
2022-12-09T01:02:58.148Z,15.30
2022-12-09T01:07:59.320Z,20.10
2022-12-09T01:13:02.023Z,18.30
2022-12-09T01:18:04.178Z,17.20
2022-12-09T01:23:05.838Z,17.60
2022-12-09T01:28:06.937Z,18.00
2022-12-09T01:33:08.378Z,19.30
2022-12-09T01:38:10.109Z,18.90
2022-12-09T01:43:18.537Z,17.60
2022-12-09T01:48:24.384Z,17.10
2022-12-09T01:53:31.614Z,17.10
2022-12-09T01:58:33.207Z,19.60
2022-12-09T02:03:34.714Z,17.50
2022-12-09T02:08:36.024Z,17.70
2022-12-09T02:13:51.602Z,17.70
2022-12-09T02:19:11.309Z,19.50
2022-12-09T02:24:34.901Z,18.80
2022-12-09T02:29:48.376Z,16.50
2022-12-09T02:34:57.811Z,19.00
2022-12-09T02:40:07.344Z,19.60
2022-12-09T02:45:10.610Z,18.10
2022-12-09T02:50:14.920Z,18.30
2022-12-09T03:10:53.065Z,16.70
2022-12-09T03:16:02.621Z,17.60
2022-12-09T03:21:05.439Z,18.50
2022-12-09T03:26:06.678Z,19.20
2022-12-09T03:31:13.882Z,18.80
2022-12-09T03:36:16.983Z,19.10
2022-12-09T03:41:37.895Z,17.60
2022-12-09T03:46:39.432Z,17.80
2022-12-09T03:51:59.583Z,18.60
2022-12-09T03:57:01.524Z,20.80
2022-12-09T04:02:06.067Z,20.30
2022-12-09T04:07:08.690Z,20.10
2022-12-09T04:12:10.115Z,19.80
2022-12-09T04:17:11.994Z,20.20
2022-12-09T04:22:13.474Z,21.70
2022-12-09T04:27:14.639Z,21.20
2022-12-09T04:37:16.775Z,20.30
2022-12-09T04:47:18.962Z,21.30
2022-12-09T04:52:20.599Z,19.60
2022-12-09T04:57:21.765Z,21.40
2022-12-09T05:07:24.772Z,20.20
2022-12-09T05:12:25.957Z,21.80
2022-12-09T05:22:28.855Z,19.20
2022-12-09T05:27:30.404Z,19.40
2022-12-09T05:32:31.691Z,21.30
2022-12-09T05:37:33.519Z,19.00
2022-12-09T05:42:40.870Z,21.00
2022-12-09T05:47:42.899Z,19.20
2022-12-09T05:52:44.453Z,20.80
2022-12-09T05:57:47.644Z,22.00
2022-12-09T06:02:48.925Z,21.10
2022-12-09T06:07:50.747Z,22.50
2022-12-09T06:12:56.041Z,22.10
2022-12-09T06:17:57.320Z,22.00
2022-12-09T06:22:58.895Z,20.10
2022-12-09T06:28:00.270Z,19.60
2022-12-09T06:33:01.474Z,20.10
2022-12-09T06:38:02.988Z,27.70
2022-12-09T06:43:05.059Z,24.60
2022-12-09T06:48:06.335Z,21.40
2022-12-09T06:53:07.849Z,20.70
2022-12-09T06:58:09.444Z,20.40
2022-12-09T07:03:12.705Z,17.90
2022-12-09T07:08:14.094Z,21.50
2022-12-09T07:13:15.572Z,20.60
2022-12-09T07:18:16.707Z,19.50
2022-12-09T07:23:17.904Z,19.50
2022-12-09T07:38:23.712Z,16.70
2022-12-09T07:43:24.936Z,18.10
2022-12-09T07:48:26.221Z,20.50
2022-12-09T07:53:28.423Z,18.40
2022-12-09T07:58:29.910Z,17.30
2022-12-09T08:03:31.239Z,17.70
2022-12-09T08:08:33.227Z,18.30
2022-12-09T08:13:36.078Z,19.30
2022-12-09T08:18:38.604Z,17.90
2022-12-09T08:23:40.290Z,17.50
2022-12-09T08:28:42.094Z,18.10
2022-12-09T08:33:44.171Z,17.10
2022-12-09T08:38:46.242Z,14.40
2022-12-09T08:43:47.808Z,13.70
2022-12-09T08:48:49.754Z,13.50
2022-12-09T08:53:51.184Z,13.00
2022-12-09T08:58:54.066Z,13.00
2022-12-09T09:03:55.694Z,13.30
2022-12-09T09:08:58.457Z,13.20
2022-12-09T09:14:03.505Z,14.00
2022-12-09T09:19:05.552Z,13.50
2022-12-09T09:24:09.503Z,14.30
2022-12-09T09:29:11.974Z,15.20
2022-12-09T09:34:16.438Z,14.50
2022-12-09T09:39:18.664Z,16.50
2022-12-09T09:44:57.663Z,15.40
2022-12-09T09:50:09.281Z,18.50
2022-12-09T09:55:16.130Z,18.20
2022-12-09T10:00:27.002Z,18.90
2022-12-09T10:05:32.100Z,16.10
2022-12-09T10:11:06.921Z,13.80
2022-12-09T10:16:21.047Z,14.40
2022-12-09T10:21:22.579Z,16.90
2022-12-09T10:26:30.262Z,16.80
2022-12-09T10:31:32.109Z,18.00
2022-12-09T10:36:36.125Z,22.90
2022-12-09T10:41:59.837Z,14.30
2022-12-09T10:47:05.241Z,16.00
2022-12-09T10:52:07.105Z,16.20
2022-12-09T10:57:12.669Z,15.40
2022-12-09T11:02:20.259Z,14.60
2022-12-09T11:07:26.539Z,16.90
2022-12-09T11:12:30.834Z,17.10
2022-12-09T11:17:36.273Z,17.10
2022-12-09T11:22:44.137Z,18.10
2022-12-09T11:27:53.865Z,19.40
2022-12-09T11:33:01.436Z,18.70
2022-12-09T11:38:29.291Z,19.20
2022-12-09T11:43:35.736Z,18.30
2022-12-09T11:48:43.477Z,16.90
2022-12-09T11:53:45.494Z,16.90
2022-12-09T11:58:55.490Z,19.60
2022-12-09T12:04:01.089Z,19.80
2022-12-09T12:09:11.787Z,18.80
2022-12-09T12:14:18.109Z,15.10
2022-12-09T12:19:28.054Z,12.30
2022-12-09T12:24:48.744Z,13.30
2022-12-09T12:30:02.959Z,14.10
2022-12-09T12:35:29.772Z,14.40
2022-12-09T12:40:41.264Z,15.80
2022-12-09T12:46:10.732Z,13.70
2022-12-09T12:51:34.641Z,13.40
2022-12-09T12:57:09.921Z,14.80
2022-12-09T13:02:36.457Z,16.60
2022-12-09T13:07:47.477Z,17.70
2022-12-09T13:12:56.244Z,16.30
2022-12-09T13:18:04.151Z,18.20
2022-12-09T13:23:21.275Z,15.50
2022-12-09T13:28:42.081Z,15.40
2022-12-09T13:34:01.944Z,15.90
2022-12-09T13:39:03.649Z,14.10
2022-12-09T13:44:11.337Z,14.60
2022-12-09T13:49:20.651Z,14.40
2022-12-09T13:54:25.060Z,12.40
2022-12-09T13:59:44.842Z,15.90
2022-12-09T14:05:04.668Z,15.70
2022-12-09T14:10:26.599Z,16.10
2022-12-09T14:15:27.518Z,16.90
2022-12-09T14:20:31.112Z,21.00
2022-12-09T14:25:32.955Z,17.60
2022-12-09T14:30:33.894Z,16.40
2022-12-09T14:35:56.340Z,17.60
2022-12-09T14:41:05.805Z,18.00
2022-12-09T14:46:30.094Z,20.60
2022-12-09T14:51:36.339Z,23.10
2022-12-09T14:56:37.744Z,15.70
2022-12-09T15:01:57.913Z,15.80
2022-12-09T15:07:30.015Z,18.00
2022-12-09T15:12:35.852Z,21.30
2022-12-09T15:17:45.560Z,19.60
2022-12-09T15:22:52.888Z,18.00
2022-12-09T15:28:03.396Z,18.70
2022-12-09T15:33:17.307Z,18.10
2022-12-09T15:38:19.042Z,22.30
2022-12-09T15:43:20.122Z,18.10
2022-12-09T15:48:27.165Z,17.10
2022-12-09T15:54:05.926Z,21.30
2022-12-09T15:59:32.876Z,21.10
2022-12-09T16:04:41.080Z,19.60
2022-12-09T16:10:04.735Z,17.80
2022-12-09T16:15:09.255Z,18.90
2022-12-09T16:20:34.002Z,22.50
2022-12-09T16:25:41.073Z,21.00
2022-12-09T16:30:45.168Z,27.50
2022-12-09T16:36:01.429Z,27.70
2022-12-09T16:41:07.009Z,26.10
2022-12-09T16:46:14.173Z,24.60
2022-12-09T16:51:22.883Z,26.50
2022-12-09T16:56:26.402Z,26.00
2022-12-09T17:01:34.445Z,23.40
2022-12-09T17:06:35.492Z,20.20
2022-12-09T17:21:39.450Z,23.90
2022-12-09T17:31:41.908Z,20.90
2022-12-09T17:36:43.581Z,17.50
2022-12-09T17:41:44.717Z,15.80
2022-12-09T17:51:47.080Z,17.50
2022-12-09T17:56:48.172Z,23.00
2022-12-09T18:06:50.118Z,24.80
2022-12-09T18:11:51.404Z,21.90
2022-12-09T18:16:52.514Z,25.10
2022-12-09T18:21:54.821Z,23.70
2022-12-09T18:26:56.649Z,22.30
2022-12-09T18:31:57.969Z,22.00
2022-12-09T18:41:59.983Z,23.40
2022-12-09T18:52:02.875Z,21.50
2022-12-09T18:57:03.902Z,23.10
2022-12-09T19:07:06.005Z,26.40
2022-12-09T19:12:38.294Z,23.00
2022-12-09T19:17:31.753Z,20.50
2022-12-09T19:22:32.738Z,20.00
2022-12-09T19:38:00.936Z,18.10
2022-12-09T19:43:03.027Z,17.00
2022-12-09T19:48:04.212Z,21.70
2022-12-09T19:53:05.243Z,21.50
2022-12-09T19:58:08.329Z,21.00
2022-12-09T20:03:09.950Z,20.90
2022-12-09T20:08:11.255Z,18.60
2022-12-09T20:18:14.130Z,17.10
2022-12-09T20:28:16.219Z,20.20
2022-12-09T20:38:18.363Z,18.60
2022-12-09T20:43:19.345Z,15.00
2022-12-09T20:48:20.383Z,19.60
2022-12-09T20:58:22.762Z,15.30
2022-12-09T21:03:23.814Z,14.40
2022-12-09T21:13:42.347Z,15.80
2022-12-09T21:18:43.405Z,16.10
2022-12-09T21:33:48.806Z,11.70
2022-12-09T21:38:51.344Z,11.90
2022-12-09T21:43:54.304Z,11.90
2022-12-09T21:49:03.279Z,11.50
2022-12-09T21:54:05.709Z,11.00
2022-12-09T21:59:06.782Z,14.80
2022-12-09T22:04:11.913Z,15.20
2022-12-09T22:09:13.610Z,13.30
2022-12-09T22:14:15.244Z,14.60
2022-12-09T22:19:18.380Z,19.40
2022-12-09T22:24:19.401Z,15.30
2022-12-09T22:34:22.011Z,11.40
2022-12-09T22:39:23.344Z,12.20
2022-12-09T22:44:24.647Z,10.30
2022-12-09T22:54:27.068Z,11.60
2022-12-09T22:59:28.804Z,10.50
2022-12-09T23:04:29.830Z,11.90
2022-12-09T23:14:32.797Z,14.90
2022-12-09T23:24:36.994Z,13.70
2022-12-09T23:29:38.217Z,12.80
2022-12-09T23:34:39.563Z,15.70
2022-12-09T23:44:41.438Z,15.10
2022-12-09T23:49:42.409Z,14.90
2022-12-09T23:59:44.344Z,11.70
